»·PEaware :: SWA1274 KDEN-KABQ

SWA1274 :: KDEN-KABQ

FLIGHT INFORMATION

Flight Status: Arrived
Operator:
Southwest Airlines
More flights by this operator :: More flights under this callsign
Pilot: Anonymous 32031 (32031)
Aircraft: BOEING 737-800
(B738)
More flights by this aircraft type
Origin: KDEN Denver Intl
United States
Destination: KABQ Albuquerque Intl Sunport
United States
More flights between these airports :: More routes between these airports
Route: SUDDZ1 SUDDZ DATME SNDIA4
File this flight plan on PilotEdge
Remarks:
Altitude:
(Current/Filed)
36,000ft
Speed:
(Current/Filed)
425kts
Departed: 24-Nov-21 09:33 PM
Arrived: 24-Nov-21 10:27 PM
Distance/Time
Traveled:
303nm/0:53
Distance/Time
To Go:
Arrived

Flight Plot

Page will automatically refresh every two minutes.

Flight plan parsing failed; only flown route is shown


Map Options




Map Legend


Flown Route
Filed Route
Departure Airport
Arrival Airport
Navaid (VOR, NDB)
Fix

Horizontal Profiles

Position Reports

Time Latitude Longitude Heading Altitude Ground
Speed
24-Nov-21 21:15 39.863588 -104.677367 177 5445ft 0kts
24-Nov-21 21:16 39.863588 -104.677367 177 5445ft 0kts
24-Nov-21 21:17 39.863588 -104.677367 177 5445ft 0kts
24-Nov-21 21:18 39.863588 -104.677367 177 5445ft 0kts
24-Nov-21 21:19 39.863588 -104.677367 177 5445ft 0kts
24-Nov-21 21:21 39.863588 -104.677367 177 5445ft 0kts
24-Nov-21 21:22 39.863735 -104.677490 147 5445ft 2kts
24-Nov-21 21:23 39.864068 -104.678081 92 5445ft 1kts
24-Nov-21 21:24 39.864070 -104.678140 90 5445ft 0kts
24-Nov-21 21:25 39.864070 -104.678140 90 5445ft 0kts
24-Nov-21 21:26 39.864699 -104.675133 81 5445ft 22kts
24-Nov-21 21:27 39.864690 -104.667072 89 5445ft 23kts
24-Nov-21 21:28 39.865010 -104.664618 87 5445ft 1kts
24-Nov-21 21:29 39.867916 -104.662246 0 5445ft 26kts
24-Nov-21 21:30 39.875738 -104.662076 1 5445ft 16kts
24-Nov-21 21:31 39.876357 -104.662074 353 5445ft 0kts
24-Nov-21 21:32 39.876373 -104.662076 353 5445ft 1kts
24-Nov-21 21:33 39.877513 -104.658940 90 5445ft 64kts
24-Nov-21 21:34 39.875139 -104.602879 113 7356ft 190kts
24-Nov-21 21:35 39.850456 -104.524393 113 9017ft 276kts
24-Nov-21 21:36 39.814203 -104.422681 127 11313ft 339kts
24-Nov-21 21:37 39.722295 -104.368153 183 13691ft 394kts
24-Nov-21 21:38 39.617041 -104.407299 205 16919ft 399kts
24-Nov-21 21:39 39.513941 -104.467713 218 19869ft 404kts
24-Nov-21 21:40 39.421506 -104.552947 220 22433ft 415kts
24-Nov-21 21:41 39.327273 -104.641253 220 24705ft 425kts
24-Nov-21 21:41 39.246598 -104.716863 220 26418ft 434kts
24-Nov-21 21:43 39.130898 -104.823104 214 28634ft 445kts
24-Nov-21 21:44 39.014819 -104.879927 201 30881ft 447kts
24-Nov-21 21:45 38.897833 -104.925521 202 33158ft 435kts
24-Nov-21 21:46 38.783528 -104.969863 202 35201ft 426kts
24-Nov-21 21:46 38.689087 -105.006304 202 36391ft 427kts
24-Nov-21 21:48 38.552980 -105.058527 201 36438ft 448kts
24-Nov-21 21:49 38.433260 -105.104296 201 36438ft 449kts
24-Nov-21 21:50 38.313716 -105.149854 201 36436ft 450kts
24-Nov-21 21:50 38.213967 -105.187777 201 36436ft 451kts
24-Nov-21 21:51 38.093625 -105.233369 201 36400ft 451kts
24-Nov-21 21:52 37.973893 -105.278603 201 36372ft 451kts
24-Nov-21 21:54 37.840130 -105.348724 211 36335ft 445kts
24-Nov-21 21:55 37.730494 -105.419291 212 36325ft 444kts
24-Nov-21 21:55 37.639312 -105.479326 212 36324ft 443kts
24-Nov-21 21:56 37.530384 -105.551333 212 36323ft 444kts
24-Nov-21 21:57 37.421241 -105.623395 212 36325ft 443kts
24-Nov-21 21:58 37.311870 -105.695393 211 36330ft 445kts
24-Nov-21 21:59 37.202471 -105.767180 211 36330ft 444kts
24-Nov-21 22:00 37.093287 -105.838604 212 36331ft 442kts
24-Nov-21 22:01 36.987164 -105.907707 213 36329ft 419kts
24-Nov-21 22:02 36.885583 -105.973709 213 36331ft 412kts
24-Nov-21 22:03 36.783432 -106.039964 213 36329ft 412kts
24-Nov-21 22:04 36.681652 -106.104987 210 36329ft 415kts
24-Nov-21 22:05 36.573411 -106.156001 206 36326ft 411kts
24-Nov-21 22:06 36.466421 -106.204032 206 36282ft 409kts
24-Nov-21 22:07 36.360141 -106.251372 207 32280ft 423kts
24-Nov-21 22:08 36.251459 -106.299190 207 29399ft 413kts
24-Nov-21 22:09 36.147154 -106.351990 201 27079ft 382kts
24-Nov-21 22:10 36.051742 -106.394469 198 25007ft 370kts
24-Nov-21 22:11 35.957149 -106.440868 197 22869ft 354kts
24-Nov-21 22:12 35.866657 -106.477989 192 20892ft 334kts
24-Nov-21 22:13 35.777888 -106.507288 190 18878ft 326kts
24-Nov-21 22:14 35.690607 -106.537458 194 17602ft 341kts
24-Nov-21 22:15 35.603843 -106.572455 195 16080ft 321kts
24-Nov-21 22:16 35.520591 -106.615818 202 14393ft 330kts
24-Nov-21 22:17 35.441264 -106.658642 202 13267ft 304kts
24-Nov-21 22:18 35.365021 -106.699684 202 11776ft 296kts
24-Nov-21 22:19 35.287510 -106.713018 151 10113ft 291kts
24-Nov-21 22:20 35.241567 -106.639936 117 9282ft 261kts
24-Nov-21 22:21 35.195176 -106.581827 151 9008ft 241kts
24-Nov-21 22:22 35.136410 -106.545275 151 8183ft 238kts
24-Nov-21 22:23 35.084725 -106.513001 151 7014ft 171kts
24-Nov-21 22:24 35.045639 -106.527064 251 6263ft 161kts
24-Nov-21 22:25 35.044062 -106.579721 274 5352ft 145kts
24-Nov-21 22:26 35.044325 -106.596189 280 5328ft 23kts
24-Nov-21 22:27 35.045723 -106.601748 272 5326ft 18kts
24-Nov-21 22:28 35.045862 -106.612786 284 5322ft 18kts
24-Nov-21 22:29 35.047040 -106.614027 308 5320ft 0kts
24-Nov-21 22:30 35.047040 -106.614027 308 5320ft 0kts

Navigation Log

Ident Type
Flight plan parsing failed, navigation log unavailable